sensor_id;sensor_type;location;lat;lon;timestamp;temperature;humidity
12264;DHT22;6194;49.010;8.414;2023-07-08T00:00:18;23.20;78.60
12264;DHT22;6194;49.010;8.414;2023-07-08T00:02:45;23.20;78.30
12264;DHT22;6194;49.010;8.414;2023-07-08T00:05:12;23.20;78.40
12264;DHT22;6194;49.010;8.414;2023-07-08T00:07:39;23.30;78.50
12264;DHT22;6194;49.010;8.414;2023-07-08T00:10:15;23.30;78.30
12264;DHT22;6194;49.010;8.414;2023-07-08T00:12:42;23.30;78.10
12264;DHT22;6194;49.010;8.414;2023-07-08T00:15:08;23.30;77.50
12264;DHT22;6194;49.010;8.414;2023-07-08T00:17:34;23.40;77.10
12264;DHT22;6194;49.010;8.414;2023-07-08T00:20:00;23.40;78.00
12264;DHT22;6194;49.010;8.414;2023-07-08T00:22:26;23.40;76.90
12264;DHT22;6194;49.010;8.414;2023-07-08T00:24:51;23.50;77.50
12264;DHT22;6194;49.010;8.414;2023-07-08T00:27:17;23.40;77.30
12264;DHT22;6194;49.010;8.414;2023-07-08T00:29:43;23.30;77.90
12264;DHT22;6194;49.010;8.414;2023-07-08T00:32:14;23.30;77.10
12264;DHT22;6194;49.010;8.414;2023-07-08T00:34:41;23.20;78.00
12264;DHT22;6194;49.010;8.414;2023-07-08T00:37:13;23.20;77.20
12264;DHT22;6194;49.010;8.414;2023-07-08T00:39:39;23.20;77.80
12264;DHT22;6194;49.010;8.414;2023-07-08T00:42:14;23.10;78.30
12264;DHT22;6194;49.010;8.414;2023-07-08T00:44:41;23.00;77.90
12264;DHT22;6194;49.010;8.414;2023-07-08T00:47:12;22.90;78.00
12264;DHT22;6194;49.010;8.414;2023-07-08T00:49:55;22.90;77.90
12264;DHT22;6194;49.010;8.414;2023-07-08T00:52:26;23.10;76.80
12264;DHT22;6194;49.010;8.414;2023-07-08T00:54:54;23.30;76.20
12264;DHT22;6194;49.010;8.414;2023-07-08T00:57:21;23.30;76.60
12264;DHT22;6194;49.010;8.414;2023-07-08T00:59:52;23.10;76.80
12264;DHT22;6194;49.010;8.414;2023-07-08T01:02:21;23.10;76.60
12264;DHT22;6194;49.010;8.414;2023-07-08T01:05:05;22.90;82.50
12264;DHT22;6194;49.010;8.414;2023-07-08T01:07:33;22.40;82.70
12264;DHT22;6194;49.010;8.414;2023-07-08T01:10:09;21.90;83.50
12264;DHT22;6194;49.010;8.414;2023-07-08T01:12:43;21.60;84.70
12264;DHT22;6194;49.010;8.414;2023-07-08T01:15:10;21.40;85.70
12264;DHT22;6194;49.010;8.414;2023-07-08T01:17:36;21.30;85.20
12264;DHT22;6194;49.010;8.414;2023-07-08T01:20:04;21.20;86.20
12264;DHT22;6194;49.010;8.414;2023-07-08T01:22:48;21.00;86.80
12264;DHT22;6194;49.010;8.414;2023-07-08T01:25:14;21.00;86.90
12264;DHT22;6194;49.010;8.414;2023-07-08T01:27:45;21.10;85.70
12264;DHT22;6194;49.010;8.414;2023-07-08T01:30:13;21.30;84.80
12264;DHT22;6194;49.010;8.414;2023-07-08T01:32:45;21.50;83.40
12264;DHT22;6194;49.010;8.414;2023-07-08T01:35:12;21.60;83.60
12264;DHT22;6194;49.010;8.414;2023-07-08T01:37:53;21.60;83.20
12264;DHT22;6194;49.010;8.414;2023-07-08T01:40:22;21.70;83.20
12264;DHT22;6194;49.010;8.414;2023-07-08T01:42:49;21.60;83.90
12264;DHT22;6194;49.010;8.414;2023-07-08T01:45:18;21.50;84.60
12264;DHT22;6194;49.010;8.414;2023-07-08T01:47:48;21.40;85.00
12264;DHT22;6194;49.010;8.414;2023-07-08T01:50:15;21.20;85.50
12264;DHT22;6194;49.010;8.414;2023-07-08T01:52:42;21.10;85.70
12264;DHT22;6194;49.010;8.414;2023-07-08T01:55:08;20.90;86.20
12264;DHT22;6194;49.010;8.414;2023-07-08T01:57:33;20.90;86.70
12264;DHT22;6194;49.010;8.414;2023-07-08T01:59:59;20.90;87.00
12264;DHT22;6194;49.010;8.414;2023-07-08T02:02:25;20.90;87.30
12264;DHT22;6194;49.010;8.414;2023-07-08T02:04:51;20.80;87.60
12264;DHT22;6194;49.010;8.414;2023-07-08T02:07:17;20.70;87.70
12264;DHT22;6194;49.010;8.414;2023-07-08T02:09:42;20.70;87.90
12264;DHT22;6194;49.010;8.414;2023-07-08T02:12:08;20.70;88.20
12264;DHT22;6194;49.010;8.414;2023-07-08T02:14:34;20.70;87.80
12264;DHT22;6194;49.010;8.414;2023-07-08T02:16:59;20.70;87.50
12264;DHT22;6194;49.010;8.414;2023-07-08T02:19:25;20.80;87.30
12264;DHT22;6194;49.010;8.414;2023-07-08T02:21:51;20.80;87.30
12264;DHT22;6194;49.010;8.414;2023-07-08T02:24:20;20.70;87.50
12264;DHT22;6194;49.010;8.414;2023-07-08T02:26:47;20.80;87.40
12264;DHT22;6194;49.010;8.414;2023-07-08T02:29:13;20.70;87.00
12264;DHT22;6194;49.010;8.414;2023-07-08T02:31:39;20.70;86.90
12264;DHT22;6194;49.010;8.414;2023-07-08T02:34:04;20.90;86.80
12264;DHT22;6194;49.010;8.414;2023-07-08T02:36:30;21.00;86.20
12264;DHT22;6194;49.010;8.414;2023-07-08T02:38:56;21.00;86.10
12264;DHT22;6194;49.010;8.414;2023-07-08T02:41:21;21.00;86.30
12264;DHT22;6194;49.010;8.414;2023-07-08T02:43:47;21.10;85.90
12264;DHT22;6194;49.010;8.414;2023-07-08T02:46:13;21.20;85.50
12264;DHT22;6194;49.010;8.414;2023-07-08T02:48:38;21.20;85.50
12264;DHT22;6194;49.010;8.414;2023-07-08T02:51:05;21.20;85.50
12264;DHT22;6194;49.010;8.414;2023-07-08T02:53:31;21.20;85.50
12264;DHT22;6194;49.010;8.414;2023-07-08T02:55:57;21.10;85.40
12264;DHT22;6194;49.010;8.414;2023-07-08T02:58:23;21.00;85.90
12264;DHT22;6194;49.010;8.414;2023-07-08T03:00:56;20.90;85.90
12264;DHT22;6194;49.010;8.414;2023-07-08T03:03:24;20.80;86.80
12264;DHT22;6194;49.010;8.414;2023-07-08T03:06:01;20.80;86.40
12264;DHT22;6194;49.010;8.414;2023-07-08T03:08:28;20.80;87.30
12264;DHT22;6194;49.010;8.414;2023-07-08T03:10:57;20.70;86.80
12264;DHT22;6194;49.010;8.414;2023-07-08T03:13:23;20.70;87.10
12264;DHT22;6194;49.010;8.414;2023-07-08T03:15:49;20.60;87.40
12264;DHT22;6194;49.010;8.414;2023-07-08T03:18:15;20.40;87.30
12264;DHT22;6194;49.010;8.414;2023-07-08T03:20:41;20.40;87.70
12264;DHT22;6194;49.010;8.414;2023-07-08T03:23:11;20.30;88.30
12264;DHT22;6194;49.010;8.414;2023-07-08T03:25:36;20.30;88.40
12264;DHT22;6194;49.010;8.414;2023-07-08T03:28:03;20.30;88.20
12264;DHT22;6194;49.010;8.414;2023-07-08T03:30:32;20.30;88.20
12264;DHT22;6194;49.010;8.414;2023-07-08T03:32:58;20.30;88.80
12264;DHT22;6194;49.010;8.414;2023-07-08T03:35:23;20.30;88.70
12264;DHT22;6194;49.010;8.414;2023-07-08T03:37:50;20.20;88.70
12264;DHT22;6194;49.010;8.414;2023-07-08T03:40:16;20.20;88.80
12264;DHT22;6194;49.010;8.414;2023-07-08T03:42:44;20.20;89.00
12264;DHT22;6194;49.010;8.414;2023-07-08T03:45:10;20.20;90.20
12264;DHT22;6194;49.010;8.414;2023-07-08T03:47:35;20.20;90.00
12264;DHT22;6194;49.010;8.414;2023-07-08T03:50:01;20.20;90.10
12264;DHT22;6194;49.010;8.414;2023-07-08T03:52:27;20.20;90.20
12264;DHT22;6194;49.010;8.414;2023-07-08T03:54:53;20.20;90.30
12264;DHT22;6194;49.010;8.414;2023-07-08T03:57:19;20.20;90.30
12264;DHT22;6194;49.010;8.414;2023-07-08T03:59:44;20.30;90.20
12264;DHT22;6194;49.010;8.414;2023-07-08T04:02:10;20.40;90.10
12264;DHT22;6194;49.010;8.414;2023-07-08T04:04:36;20.60;90.10
12264;DHT22;6194;49.010;8.414;2023-07-08T04:07:03;20.90;89.60
12264;DHT22;6194;49.010;8.414;2023-07-08T04:09:29;21.00;89.40
12264;DHT22;6194;49.010;8.414;2023-07-08T04:11:55;21.10;89.30
12264;DHT22;6194;49.010;8.414;2023-07-08T04:14:21;21.30;89.80
12264;DHT22;6194;49.010;8.414;2023-07-08T04:16:57;21.30;88.70
12264;DHT22;6194;49.010;8.414;2023-07-08T04:19:24;21.80;88.80
12264;DHT22;6194;49.010;8.414;2023-07-08T04:21:50;22.20;87.60
12264;DHT22;6194;49.010;8.414;2023-07-08T04:24:17;22.70;85.90
12264;DHT22;6194;49.010;8.414;2023-07-08T04:26:44;23.10;84.70
12264;DHT22;6194;49.010;8.414;2023-07-08T04:29:13;23.50;84.10
12264;DHT22;6194;49.010;8.414;2023-07-08T04:31:39;24.00;82.80
12264;DHT22;6194;49.010;8.414;2023-07-08T04:34:05;24.50;82.80
12264;DHT22;6194;49.010;8.414;2023-07-08T04:36:31;24.70;82.40
12264;DHT22;6194;49.010;8.414;2023-07-08T04:38:57;24.80;81.80
12264;DHT22;6194;49.010;8.414;2023-07-08T04:41:24;25.10;81.30
12264;DHT22;6194;49.010;8.414;2023-07-08T04:43:51;25.60;80.30
12264;DHT22;6194;49.010;8.414;2023-07-08T04:46:23;26.20;78.30
12264;DHT22;6194;49.010;8.414;2023-07-08T04:48:50;26.90;77.10
12264;DHT22;6194;49.010;8.414;2023-07-08T04:51:16;27.40;76.00
12264;DHT22;6194;49.010;8.414;2023-07-08T04:53:42;27.90;75.60
12264;DHT22;6194;49.010;8.414;2023-07-08T04:56:07;28.20;75.00
12264;DHT22;6194;49.010;8.414;2023-07-08T04:58:33;28.00;74.00
12264;DHT22;6194;49.010;8.414;2023-07-08T05:00:59;27.60;75.10
12264;DHT22;6194;49.010;8.414;2023-07-08T05:03:24;27.20;75.60
12264;DHT22;6194;49.010;8.414;2023-07-08T05:05:50;26.60;77.70
12264;DHT22;6194;49.010;8.414;2023-07-08T05:08:15;25.90;80.40
12264;DHT22;6194;49.010;8.414;2023-07-08T05:10:41;25.60;81.30
12264;DHT22;6194;49.010;8.414;2023-07-08T05:13:06;25.40;81.60
12264;DHT22;6194;49.010;8.414;2023-07-08T05:15:32;25.50;81.90
12264;DHT22;6194;49.010;8.414;2023-07-08T05:17:58;25.40;82.10
12264;DHT22;6194;49.010;8.414;2023-07-08T05:20:23;25.40;82.00
12264;DHT22;6194;49.010;8.414;2023-07-08T05:22:49;25.50;82.50
12264;DHT22;6194;49.010;8.414;2023-07-08T05:25:15;26.10;81.60
12264;DHT22;6194;49.010;8.414;2023-07-08T05:27:41;26.60;80.70
12264;DHT22;6194;49.010;8.414;2023-07-08T05:30:08;27.30;80.20
12264;DHT22;6194;49.010;8.414;2023-07-08T05:32:36;28.10;78.80
12264;DHT22;6194;49.010;8.414;2023-07-08T05:35:01;28.90;77.40
12264;DHT22;6194;49.010;8.414;2023-07-08T05:37:27;29.80;75.60
12264;DHT22;6194;49.010;8.414;2023-07-08T05:39:54;30.00;74.10
12264;DHT22;6194;49.010;8.414;2023-07-08T05:42:21;30.00;73.70
12264;DHT22;6194;49.010;8.414;2023-07-08T05:44:47;30.20;73.50
12264;DHT22;6194;49.010;8.414;2023-07-08T05:47:13;30.90;72.90
12264;DHT22;6194;49.010;8.414;2023-07-08T05:49:39;31.80;71.60
12264;DHT22;6194;49.010;8.414;2023-07-08T05:52:05;32.50;70.40
12264;DHT22;6194;49.010;8.414;2023-07-08T05:54:39;33.10;69.50
12264;DHT22;6194;49.010;8.414;2023-07-08T05:57:06;33.70;69.20
12264;DHT22;6194;49.010;8.414;2023-07-08T05:59:32;34.10;68.10
12264;DHT22;6194;49.010;8.414;2023-07-08T06:01:58;34.10;68.10
12264;DHT22;6194;49.010;8.414;2023-07-08T06:04:24;34.70;67.60
12264;DHT22;6194;49.010;8.414;2023-07-08T06:06:49;34.40;67.10
12264;DHT22;6194;49.010;8.414;2023-07-08T06:09:15;33.80;69.00
12264;DHT22;6194;49.010;8.414;2023-07-08T06:11:40;32.60;71.00
12264;DHT22;6194;49.010;8.414;2023-07-08T06:14:06;30.60;74.70
12264;DHT22;6194;49.010;8.414;2023-07-08T06:16:31;30.20;76.80
12264;DHT22;6194;49.010;8.414;2023-07-08T06:19:00;29.60;78.20
12264;DHT22;6194;49.010;8.414;2023-07-08T06:21:25;29.60;78.90
12264;DHT22;6194;49.010;8.414;2023-07-08T06:23:51;30.10;78.40
12264;DHT22;6194;49.010;8.414;2023-07-08T06:26:16;30.40;78.20
12264;DHT22;6194;49.010;8.414;2023-07-08T06:28:42;30.60;78.50
12264;DHT22;6194;49.010;8.414;2023-07-08T06:31:08;31.00;78.00
12264;DHT22;6194;49.010;8.414;2023-07-08T06:33:33;30.90;77.30
12264;DHT22;6194;49.010;8.414;2023-07-08T06:35:59;30.30;79.00
12264;DHT22;6194;49.010;8.414;2023-07-08T06:38:24;30.90;77.60
12264;DHT22;6194;49.010;8.414;2023-07-08T06:40:50;30.40;76.70
12264;DHT22;6194;49.010;8.414;2023-07-08T06:43:15;29.70;78.10
12264;DHT22;6194;49.010;8.414;2023-07-08T06:45:43;29.20;79.60
12264;DHT22;6194;49.010;8.414;2023-07-08T06:48:09;28.30;81.40
12264;DHT22;6194;49.010;8.414;2023-07-08T06:50:34;28.00;82.30
12264;DHT22;6194;49.010;8.414;2023-07-08T06:53:00;27.40;83.80
12264;DHT22;6194;49.010;8.414;2023-07-08T06:55:26;27.40;84.40
12264;DHT22;6194;49.010;8.414;2023-07-08T06:57:51;27.30;85.60
12264;DHT22;6194;49.010;8.414;2023-07-08T07:00:17;27.40;85.40
12264;DHT22;6194;49.010;8.414;2023-07-08T07:02:43;27.10;86.00
12264;DHT22;6194;49.010;8.414;2023-07-08T07:05:09;26.90;87.20
12264;DHT22;6194;49.010;8.414;2023-07-08T07:07:35;27.30;86.80
12264;DHT22;6194;49.010;8.414;2023-07-08T07:10:00;27.20;86.70
12264;DHT22;6194;49.010;8.414;2023-07-08T07:12:26;27.70;87.60
12264;DHT22;6194;49.010;8.414;2023-07-08T07:14:52;28.40;85.60
12264;DHT22;6194;49.010;8.414;2023-07-08T07:17:22;29.30;84.00
12264;DHT22;6194;49.010;8.414;2023-07-08T07:19:48;29.70;82.80
12264;DHT22;6194;49.010;8.414;2023-07-08T07:22:14;30.50;81.60
12264;DHT22;6194;49.010;8.414;2023-07-08T07:24:40;30.80;81.20
12264;DHT22;6194;49.010;8.414;2023-07-08T07:27:06;30.80;81.20
12264;DHT22;6194;49.010;8.414;2023-07-08T07:29:44;30.60;82.30
12264;DHT22;6194;49.010;8.414;2023-07-08T07:32:11;30.50;83.00
12264;DHT22;6194;49.010;8.414;2023-07-08T07:34:38;30.70;82.90
12264;DHT22;6194;49.010;8.414;2023-07-08T07:37:06;30.50;84.00
12264;DHT22;6194;49.010;8.414;2023-07-08T07:39:32;30.30;84.30
12264;DHT22;6194;49.010;8.414;2023-07-08T07:41:57;30.20;84.30
12264;DHT22;6194;49.010;8.414;2023-07-08T07:44:25;30.90;83.60
12264;DHT22;6194;49.010;8.414;2023-07-08T07:46:52;32.30;81.20
12264;DHT22;6194;49.010;8.414;2023-07-08T07:49:19;34.00;78.20
12264;DHT22;6194;49.010;8.414;2023-07-08T07:51:45;35.30;76.70
12264;DHT22;6194;49.010;8.414;2023-07-08T07:54:11;34.90;75.30
12264;DHT22;6194;49.010;8.414;2023-07-08T07:56:36;34.10;76.00
12264;DHT22;6194;49.010;8.414;2023-07-08T07:59:03;34.30;75.10
12264;DHT22;6194;49.010;8.414;2023-07-08T08:01:28;34.90;74.90
12264;DHT22;6194;49.010;8.414;2023-07-08T08:03:54;35.80;72.20
12264;DHT22;6194;49.010;8.414;2023-07-08T08:06:19;37.20;70.70
12264;DHT22;6194;49.010;8.414;2023-07-08T08:08:45;38.00;68.90
12264;DHT22;6194;49.010;8.414;2023-07-08T08:11:11;38.20;67.60
12264;DHT22;6194;49.010;8.414;2023-07-08T08:13:37;37.40;68.70
12264;DHT22;6194;49.010;8.414;2023-07-08T08:16:03;38.10;67.50
12264;DHT22;6194;49.010;8.414;2023-07-08T08:18:29;38.20;64.40
12264;DHT22;6194;49.010;8.414;2023-07-08T08:20:55;37.60;64.60
12264;DHT22;6194;49.010;8.414;2023-07-08T08:23:20;37.50;64.10
12264;DHT22;6194;49.010;8.414;2023-07-08T08:25:46;36.60;65.10
12264;DHT22;6194;49.010;8.414;2023-07-08T08:28:11;37.30;64.40
12264;DHT22;6194;49.010;8.414;2023-07-08T08:30:37;37.50;62.60
12264;DHT22;6194;49.010;8.414;2023-07-08T08:33:03;35.90;63.00
12264;DHT22;6194;49.010;8.414;2023-07-08T08:35:28;35.00;64.30
12264;DHT22;6194;49.010;8.414;2023-07-08T08:37:54;33.80;64.10
12264;DHT22;6194;49.010;8.414;2023-07-08T08:40:20;33.60;65.20
12264;DHT22;6194;49.010;8.414;2023-07-08T08:45:23;33.10;67.50
12264;DHT22;6194;49.010;8.414;2023-07-08T08:48:02;33.30;67.30
12264;DHT22;6194;49.010;8.414;2023-07-08T08:50:51;32.80;67.70
12264;DHT22;6194;49.010;8.414;2023-07-08T08:53:18;32.20;68.80
12264;DHT22;6194;49.010;8.414;2023-07-08T08:55:57;32.40;69.50
12264;DHT22;6194;49.010;8.414;2023-07-08T08:58:43;32.50;69.50
12264;DHT22;6194;49.010;8.414;2023-07-08T09:01:13;32.90;69.00
12264;DHT22;6194;49.010;8.414;2023-07-08T09:04:13;32.60;69.50
12264;DHT22;6194;49.010;8.414;2023-07-08T09:06:33;32.70;68.80
12264;DHT22;6194;49.010;8.414;2023-07-08T09:09:17;32.50;69.00
12264;DHT22;6194;49.010;8.414;2023-07-08T09:14:29;32.30;68.50
12264;DHT22;6194;49.010;8.414;2023-07-08T09:17:15;32.00;68.70
12264;DHT22;6194;49.010;8.414;2023-07-08T09:22:48;31.70;67.90
12264;DHT22;6194;49.010;8.414;2023-07-08T09:27:42;30.90;69.60
12264;DHT22;6194;49.010;8.414;2023-07-08T09:30:16;30.70;70.10
12264;DHT22;6194;49.010;8.414;2023-07-08T09:32:42;30.70;68.80
12264;DHT22;6194;49.010;8.414;2023-07-08T09:35:09;30.30;69.70
12264;DHT22;6194;49.010;8.414;2023-07-08T09:37:36;30.10;71.00
12264;DHT22;6194;49.010;8.414;2023-07-08T09:42:52;29.90;71.30
12264;DHT22;6194;49.010;8.414;2023-07-08T09:45:23;30.20;71.50
12264;DHT22;6194;49.010;8.414;2023-07-08T09:47:53;30.40;70.40
12264;DHT22;6194;49.010;8.414;2023-07-08T09:50:27;30.30;70.40
12264;DHT22;6194;49.010;8.414;2023-07-08T09:52:56;29.90;71.00
12264;DHT22;6194;49.010;8.414;2023-07-08T09:55:26;29.90;71.30
12264;DHT22;6194;49.010;8.414;2023-07-08T09:57:56;30.30;70.90
12264;DHT22;6194;49.010;8.414;2023-07-08T10:00:50;30.20;70.90
12264;DHT22;6194;49.010;8.414;2023-07-08T10:03:25;30.20;71.80
12264;DHT22;6194;49.010;8.414;2023-07-08T10:05:53;30.40;71.80
12264;DHT22;6194;49.010;8.414;2023-07-08T10:08:24;30.30;72.50
12264;DHT22;6194;49.010;8.414;2023-07-08T10:10:58;30.20;72.60
12264;DHT22;6194;49.010;8.414;2023-07-08T10:13:42;30.40;71.50
12264;DHT22;6194;49.010;8.414;2023-07-08T10:16:21;30.40;71.30
12264;DHT22;6194;49.010;8.414;2023-07-08T10:18:48;30.20;71.70
12264;DHT22;6194;49.010;8.414;2023-07-08T10:35:25;29.70;75.40
12264;DHT22;6194;49.010;8.414;2023-07-08T10:40:50;29.60;77.30
12264;DHT22;6194;49.010;8.414;2023-07-08T10:49:39;29.60;79.00
12264;DHT22;6194;49.010;8.414;2023-07-08T11:00:48;29.90;79.60
12264;DHT22;6194;49.010;8.414;2023-07-08T11:08:28;29.80;78.80
12264;DHT22;6194;49.010;8.414;2023-07-08T11:11:09;29.80;79.20
12264;DHT22;6194;49.010;8.414;2023-07-08T11:13:42;29.80;79.10
12264;DHT22;6194;49.010;8.414;2023-07-08T11:16:20;29.80;79.30
12264;DHT22;6194;49.010;8.414;2023-07-08T11:21:40;29.70;80.50
12264;DHT22;6194;49.010;8.414;2023-07-08T11:32:03;30.30;78.20
12264;DHT22;6194;49.010;8.414;2023-07-08T11:34:29;30.30;77.90
12264;DHT22;6194;49.010;8.414;2023-07-08T11:36:57;30.50;78.40
12264;DHT22;6194;49.010;8.414;2023-07-08T11:39:42;30.40;78.90
12264;DHT22;6194;49.010;8.414;2023-07-08T11:42:14;30.50;78.40
12264;DHT22;6194;49.010;8.414;2023-07-08T11:44:59;30.40;77.60
12264;DHT22;6194;49.010;8.414;2023-07-08T11:47:40;30.40;77.70
12264;DHT22;6194;49.010;8.414;2023-07-08T11:50:28;30.60;76.50
12264;DHT22;6194;49.010;8.414;2023-07-08T11:55:34;30.40;76.40
12264;DHT22;6194;49.010;8.414;2023-07-08T11:58:01;30.50;76.20
12264;DHT22;6194;49.010;8.414;2023-07-08T12:00:30;30.50;76.50
12264;DHT22;6194;49.010;8.414;2023-07-08T12:03:03;30.70;76.50
12264;DHT22;6194;49.010;8.414;2023-07-08T12:05:36;30.80;75.00
12264;DHT22;6194;49.010;8.414;2023-07-08T12:08:15;30.80;75.00
12264;DHT22;6194;49.010;8.414;2023-07-08T12:10:50;30.80;74.60
12264;DHT22;6194;49.010;8.414;2023-07-08T12:13:23;30.80;75.00
12264;DHT22;6194;49.010;8.414;2023-07-08T12:15:49;30.70;75.30
12264;DHT22;6194;49.010;8.414;2023-07-08T12:20:57;30.90;74.80
12264;DHT22;6194;49.010;8.414;2023-07-08T12:23:25;30.80;74.20
12264;DHT22;6194;49.010;8.414;2023-07-08T12:25:52;30.80;74.20
12264;DHT22;6194;49.010;8.414;2023-07-08T12:28:19;30.90;73.20
12264;DHT22;6194;49.010;8.414;2023-07-08T12:30:47;31.00;73.10
12264;DHT22;6194;49.010;8.414;2023-07-08T12:33:16;31.20;73.70
12264;DHT22;6194;49.010;8.414;2023-07-08T12:35:44;31.10;73.60
12264;DHT22;6194;49.010;8.414;2023-07-08T12:40:56;31.40;72.80
12264;DHT22;6194;49.010;8.414;2023-07-08T12:43:22;31.50;72.60
12264;DHT22;6194;49.010;8.414;2023-07-08T12:45:48;31.60;72.40
12264;DHT22;6194;49.010;8.414;2023-07-08T12:48:13;31.70;72.50
12264;DHT22;6194;49.010;8.414;2023-07-08T12:50:39;31.60;73.00
12264;DHT22;6194;49.010;8.414;2023-07-08T12:53:05;31.30;72.70
12264;DHT22;6194;49.010;8.414;2023-07-08T12:55:39;31.20;72.90
12264;DHT22;6194;49.010;8.414;2023-07-08T12:58:05;31.20;73.00
12264;DHT22;6194;49.010;8.414;2023-07-08T13:00:38;31.20;73.40
12264;DHT22;6194;49.010;8.414;2023-07-08T13:05:33;31.40;72.90
12264;DHT22;6194;49.010;8.414;2023-07-08T13:07:59;31.50;72.40
12264;DHT22;6194;49.010;8.414;2023-07-08T13:10:28;31.30;72.70
12264;DHT22;6194;49.010;8.414;2023-07-08T13:12:59;31.30;72.70
12264;DHT22;6194;49.010;8.414;2023-07-08T13:15:31;31.50;73.30
12264;DHT22;6194;49.010;8.414;2023-07-08T13:17:58;31.70;73.10
12264;DHT22;6194;49.010;8.414;2023-07-08T13:20:24;31.80;72.70
12264;DHT22;6194;49.010;8.414;2023-07-08T13:23:00;31.90;72.30
12264;DHT22;6194;49.010;8.414;2023-07-08T13:25:29;32.00;72.10
12264;DHT22;6194;49.010;8.414;2023-07-08T13:27:58;32.20;71.90
12264;DHT22;6194;49.010;8.414;2023-07-08T13:30:26;32.20;71.70
12264;DHT22;6194;49.010;8.414;2023-07-08T13:32:56;32.10;71.80
12264;DHT22;6194;49.010;8.414;2023-07-08T13:35:39;32.20;72.10
12264;DHT22;6194;49.010;8.414;2023-07-08T13:38:06;32.20;71.90
12264;DHT22;6194;49.010;8.414;2023-07-08T13:40:43;32.20;71.70
12264;DHT22;6194;49.010;8.414;2023-07-08T13:43:10;32.30;72.10
12264;DHT22;6194;49.010;8.414;2023-07-08T13:45:35;32.40;70.70
12264;DHT22;6194;49.010;8.414;2023-07-08T13:48:10;32.50;70.70
12264;DHT22;6194;49.010;8.414;2023-07-08T13:50:49;32.50;70.50
12264;DHT22;6194;49.010;8.414;2023-07-08T13:53:18;32.40;70.80
12264;DHT22;6194;49.010;8.414;2023-07-08T13:55:44;32.60;71.10
12264;DHT22;6194;49.010;8.414;2023-07-08T13:58:15;32.60;70.70
12264;DHT22;6194;49.010;8.414;2023-07-08T14:00:41;32.80;70.60
12264;DHT22;6194;49.010;8.414;2023-07-08T14:03:10;32.90;70.20
12264;DHT22;6194;49.010;8.414;2023-07-08T14:05:39;33.00;70.20
12264;DHT22;6194;49.010;8.414;2023-07-08T14:08:13;32.90;70.40
12264;DHT22;6194;49.010;8.414;2023-07-08T14:10:39;33.00;70.30
12264;DHT22;6194;49.010;8.414;2023-07-08T14:13:04;32.90;70.10
12264;DHT22;6194;49.010;8.414;2023-07-08T14:15:30;32.90;69.80
12264;DHT22;6194;49.010;8.414;2023-07-08T14:17:56;33.00;69.90
12264;DHT22;6194;49.010;8.414;2023-07-08T14:20:22;32.90;70.30
12264;DHT22;6194;49.010;8.414;2023-07-08T14:22:50;32.90;69.10
12264;DHT22;6194;49.010;8.414;2023-07-08T14:25:17;32.90;69.70
12264;DHT22;6194;49.010;8.414;2023-07-08T14:27:46;32.80;70.20
12264;DHT22;6194;49.010;8.414;2023-07-08T14:30:12;32.80;70.30
12264;DHT22;6194;49.010;8.414;2023-07-08T14:32:38;32.80;69.70
12264;DHT22;6194;49.010;8.414;2023-07-08T14:35:23;32.80;69.60
12264;DHT22;6194;49.010;8.414;2023-07-08T14:37:49;32.90;69.90
12264;DHT22;6194;49.010;8.414;2023-07-08T14:40:34;32.90;69.90
12264;DHT22;6194;49.010;8.414;2023-07-08T14:43:06;33.00;69.80
12264;DHT22;6194;49.010;8.414;2023-07-08T14:45:40;32.90;69.40
12264;DHT22;6194;49.010;8.414;2023-07-08T14:48:10;32.90;69.50
12264;DHT22;6194;49.010;8.414;2023-07-08T14:50:36;32.80;69.40
12264;DHT22;6194;49.010;8.414;2023-07-08T14:53:02;32.90;69.60
12264;DHT22;6194;49.010;8.414;2023-07-08T14:55:28;33.00;69.50
12264;DHT22;6194;49.010;8.414;2023-07-08T14:57:53;32.80;69.50
12264;DHT22;6194;49.010;8.414;2023-07-08T15:00:22;32.90;69.40
12264;DHT22;6194;49.010;8.414;2023-07-08T15:02:49;33.00;69.00
12264;DHT22;6194;49.010;8.414;2023-07-08T15:05:19;33.20;68.80
12264;DHT22;6194;49.010;8.414;2023-07-08T15:07:49;33.30;68.40
12264;DHT22;6194;49.010;8.414;2023-07-08T15:10:14;33.40;68.70
12264;DHT22;6194;49.010;8.414;2023-07-08T15:12:40;33.50;67.80
12264;DHT22;6194;49.010;8.414;2023-07-08T15:15:14;33.50;67.90
12264;DHT22;6194;49.010;8.414;2023-07-08T15:17:40;33.60;67.70
12264;DHT22;6194;49.010;8.414;2023-07-08T15:20:13;33.60;67.60
12264;DHT22;6194;49.010;8.414;2023-07-08T15:22:39;33.50;67.40
12264;DHT22;6194;49.010;8.414;2023-07-08T15:25:06;33.40;67.80
12264;DHT22;6194;49.010;8.414;2023-07-08T15:27:34;33.50;67.90
12264;DHT22;6194;49.010;8.414;2023-07-08T15:29:59;33.50;67.60
12264;DHT22;6194;49.010;8.414;2023-07-08T15:32:25;33.50;67.30
12264;DHT22;6194;49.010;8.414;2023-07-08T15:34:53;33.40;67.60
12264;DHT22;6194;49.010;8.414;2023-07-08T15:37:18;33.60;67.30
12264;DHT22;6194;49.010;8.414;2023-07-08T15:39:44;33.60;67.20
12264;DHT22;6194;49.010;8.414;2023-07-08T15:42:17;33.60;67.20
12264;DHT22;6194;49.010;8.414;2023-07-08T15:44:42;33.70;67.30
12264;DHT22;6194;49.010;8.414;2023-07-08T15:47:11;33.80;67.10
12264;DHT22;6194;49.010;8.414;2023-07-08T15:49:38;34.00;67.00
12264;DHT22;6194;49.010;8.414;2023-07-08T15:52:04;34.10;66.90
12264;DHT22;6194;49.010;8.414;2023-07-08T15:54:29;34.20;66.50
12264;DHT22;6194;49.010;8.414;2023-07-08T15:56:55;34.50;66.10
12264;DHT22;6194;49.010;8.414;2023-07-08T15:59:25;34.50;66.20
12264;DHT22;6194;49.010;8.414;2023-07-08T16:01:51;34.50;65.50
12264;DHT22;6194;49.010;8.414;2023-07-08T16:04:26;34.90;64.30
12264;DHT22;6194;49.010;8.414;2023-07-08T16:06:54;35.30;63.80
12264;DHT22;6194;49.010;8.414;2023-07-08T16:09:19;36.30;62.10
12264;DHT22;6194;49.010;8.414;2023-07-08T16:11:47;37.40;60.50
12264;DHT22;6194;49.010;8.414;2023-07-08T16:14:14;38.90;58.70
12264;DHT22;6194;49.010;8.414;2023-07-08T16:16:40;40.60;56.80
12264;DHT22;6194;49.010;8.414;2023-07-08T16:19:09;41.80;55.20
12264;DHT22;6194;49.010;8.414;2023-07-08T16:21:35;42.90;54.00
12264;DHT22;6194;49.010;8.414;2023-07-08T16:24:00;43.70;53.20
12264;DHT22;6194;49.010;8.414;2023-07-08T16:26:26;44.40;51.40
12264;DHT22;6194;49.010;8.414;2023-07-08T16:28:52;44.50;51.40
12264;DHT22;6194;49.010;8.414;2023-07-08T16:31:20;43.90;51.10
12264;DHT22;6194;49.010;8.414;2023-07-08T16:33:48;43.70;51.00
12264;DHT22;6194;49.010;8.414;2023-07-08T16:36:19;43.50;51.70
12264;DHT22;6194;49.010;8.414;2023-07-08T16:38:45;43.30;50.90
12264;DHT22;6194;49.010;8.414;2023-07-08T16:41:19;44.00;50.70
12264;DHT22;6194;49.010;8.414;2023-07-08T16:43:46;44.20;50.50
12264;DHT22;6194;49.010;8.414;2023-07-08T16:46:15;43.40;50.80
12264;DHT22;6194;49.010;8.414;2023-07-08T16:48:41;43.40;50.60
12264;DHT22;6194;49.010;8.414;2023-07-08T16:51:26;42.90;51.10
12264;DHT22;6194;49.010;8.414;2023-07-08T16:54:08;42.40;51.60
12264;DHT22;6194;49.010;8.414;2023-07-08T16:56:34;43.30;51.00
12264;DHT22;6194;49.010;8.414;2023-07-08T16:59:00;44.50;50.00
12264;DHT22;6194;49.010;8.414;2023-07-08T17:01:26;44.00;50.20
12264;DHT22;6194;49.010;8.414;2023-07-08T17:03:53;43.80;50.10